McArthur, California
Current Conditions -  °F | °C
As of 6:56 AM on Friday 28 Nov 2014 (Local Time) from KMHS Reporting Station
Clear Clear  
Wind Chill: 43°   Ceiling: Unl
Heat Index: 46°   Visibility: 10mi
Dew Point: 33°   Wind: 6mph
Humidity: 61%   Direction: 110°ESE
Pressure: 29.92"   Gusts: NA
Location:  41.05°N, 121.4°W
Report Text: KMHS 281456Z AUTO 11005KT 10SM CLR 08/01 A2992 RMK AO2 SLP144 T00780006 58013
Loading
Personal Weather Stations






























Interactive Weather Map New forecast layout! Learn more

10-Day Weather Forecast

Advertisements
Track Severe Weather on mobile